Churubusco, Indiana
Current Conditions -  °F | °C
As of 11:55 PM on Monday 22 Dec 2014 (Local Time) from KGWB Reporting Station
Overcast Overcast  
Wind Chill: 31°   Ceiling: 3900
Heat Index: 37°   Visibility: 7mi
Dew Point: 34°   Wind: 8mph
Humidity: 87%   Direction: 90°E
Pressure: 29.73"   Gusts: NA
Location:  41.23°N, 85.32°W
Report Text: KGWB 230455Z AUTO 09007KT 7SM OVC039 03/01 A2973 RMK AO2
Loading
Personal Weather Stations






























Interactive Weather Map New forecast layout! Learn more

10-Day Weather Forecast

Advertisements
Track Severe Weather on mobile